Terminal Aerodrome Forecast
Issued by NWS

Home | Current Version | Previous Version | Graphics & Text | Print | Product List | Glossary On
Versions: 1 2 3 4 5 6 7 8 9 10 11 12 13 14 15 16 17 18 19 20 21 22 23 24 25 26 27 28 29 30
000
FTUS43 KGRB 161100 RRA
TAFRHI
TAF
KRHI 161145Z 1612/1712 34011G18KT 1 1/2SM -SN BR BKN008 OVC015
      TEMPO 1620/1624 3SM -SN OVC015
     FM170000 30009KT 4SM -SN BR BKN015 OVC025=

USA.gov is the U.S. government's official web portal to all federal, state and local government web resources and services.